Saturday, August 18, 2018, 1:53 PM EDT
Back to Local

KJYO, Leesburg / Godfrey

Location: Leesburg, VA, United States Lat: 39.083
Local Time: 1:53 PM EDT (17:53 GMT) Lon: -77.567
Time Zone: US/Eastern Elev: 390 ft

Show me the last for .
Show Decoded

2018-08-18 13:35 METAR KJYO 181735Z AUTO 24007KT 10SM SCT031 SCT037 BKN090 29/23 A2991 RMK AO2 =
2018-08-18 13:15 METAR KJYO 181715Z AUTO 24006KT 10SM SCT029 SCT034 29/23 A2991 RMK AO2 =
2018-08-18 12:55 METAR KJYO 181655Z AUTO 27005KT 10SM SCT080 28/22 A2991 RMK AO2 =
2018-08-18 12:35 METAR KJYO 181635Z AUTO 26009KT 10SM SCT080 28/22 A2991 RMK AO2 =
2018-08-18 12:15 METAR KJYO 181615Z AUTO 24004KT 10SM CLR 27/22 A2992 RMK AO2 =
2018-08-18 11:55 METAR KJYO 181555Z AUTO 26006KT 10SM CLR 27/22 A2993 RMK AO2 =
2018-08-18 11:35 METAR KJYO 181535Z AUTO 26007KT 10SM CLR 27/22 A2993 RMK AO2 =
2018-08-18 11:15 METAR KJYO 181515Z AUTO 25004KT 10SM CLR 27/22 A2993 RMK AO2 =
2018-08-18 10:55 METAR KJYO 181455Z AUTO 24004KT 10SM CLR 26/22 A2993 RMK AO2 =
2018-08-18 10:35 METAR KJYO 181435Z AUTO 27005KT 10SM CLR 25/22 A2994 RMK AO2 =
2018-08-18 10:15 METAR KJYO 181415Z AUTO 25004KT 10SM CLR 25/22 A2994 RMK AO2 =
2018-08-18 09:55 METAR KJYO 181355Z AUTO 24003KT 10SM CLR 24/22 A2994 RMK AO2 =
2018-08-18 09:35 METAR KJYO 181335Z AUTO 25005KT 10SM CLR 23/22 A2994 RMK AO2 =
2018-08-18 09:15 METAR KJYO 181315Z AUTO 27003KT 10SM CLR 21/21 A2995 RMK AO2 =
2018-08-18 08:55 METAR KJYO 181255Z AUTO 23003KT 10SM SCT110 20/20 A2995 RMK AO2 =
2018-08-18 08:35 METAR KJYO 181235Z AUTO 00000KT 10SM SCT046 SCT070 BKN110 20/20 A2995 RMK AO2 =
2018-08-18 08:15 METAR KJYO 181215Z AUTO 00000KT 10SM -RA SCT049 SCT070 BKN095 20/20 A2995 RMK
                 AO2 =
2018-08-18 07:55 METAR KJYO 181155Z AUTO 19003KT 10SM SCT100 SCT120 20/20 A2995 RMK AO2 =
2018-08-18 07:35 METAR KJYO 181135Z AUTO 00000KT 10SM CLR 19/19 A2995 RMK AO2 =
2018-08-18 07:15 METAR KJYO 181115Z AUTO 00000KT 10SM SCT065 SCT085 SCT120 19/19 A2995 RMK AO2 =
2018-08-18 06:55 METAR KJYO 181055Z AUTO 00000KT 10SM CLR 19/19 A2995 RMK AO2 =
2018-08-18 06:35 METAR KJYO 181035Z AUTO 00000KT 10SM SCT120 19/19 A2995 RMK AO2 =
2018-08-18 06:15 METAR KJYO 181015Z AUTO 27003KT 10SM SCT120 19/19 A2995 RMK AO2 =
2018-08-18 05:55 METAR KJYO 180955Z AUTO 26004KT 10SM CLR 20/20 A2994 RMK AO2 =
2018-08-18 05:35 METAR KJYO 180935Z AUTO 00000KT 10SM CLR 19/19 A2994 RMK AO2 =
2018-08-18 05:15 METAR KJYO 180915Z AUTO 18003KT 10SM VCTS CLR 20/20 A2994 RMK AO2 =
2018-08-18 04:55 METAR KJYO 180855Z AUTO 00000KT 10SM CLR 19/19 A2995 RMK AO2 =
2018-08-18 04:35 METAR KJYO 180835Z AUTO 00000KT 10SM CLR 20/20 A2994 RMK AO2 =
2018-08-18 04:15 METAR KJYO 180815Z AUTO 00000KT 10SM CLR 20/20 A2994 RMK AO2 =
2018-08-18 03:55 METAR KJYO 180755Z AUTO 24003KT 10SM CLR 20/20 A2995 RMK AO2 =
2018-08-18 03:35 METAR KJYO 180735Z AUTO 00000KT 10SM SCT090 SCT120 20/20 A2995 RMK AO2 =
2018-08-18 03:15 METAR KJYO 180715Z AUTO 00000KT 10SM SCT090 SCT120 20/20 A2995 RMK AO2 LTG DSNT
                 E =
2018-08-18 02:55 METAR KJYO 180655Z AUTO 25004KT 10SM -VCTSRA SCT090 BKN120 20/20 A2996 RMK AO2
                 LTG DSNT E =
2018-08-18 02:35 METAR KJYO 180635Z AUTO 26003KT 10SM -TSRA SCT010 SCT025 BKN110 21/21 A2996 RMK
                 AO2 LTG DSNT ALQS =
2018-08-18 02:15 METAR KJYO 180615Z AUTO 32005G31KT 1/2SM +TSRA BKN008 BKN014 OVC023 21/21 A2997
                 RMK AO2 LTG DSNT ALQS =
2018-08-18 01:55 METAR KJYO 180555Z AUTO 27005KT 10SM VCTS BKN060 BKN070 OVC090 21/21 A2997 RMK
                 AO2 LTG DSNT SW AND W =
2018-08-18 01:35 METAR KJYO 180535Z AUTO 00000KT 10SM SCT070 21/21 A2997 RMK AO2 LTG DSNT NE E
                 AND W =
2018-08-18 01:15 METAR KJYO 180515Z AUTO 23003KT 10SM CLR 21/21 A2997 RMK AO2 LTG DSNT NE AND W =
2018-08-18 00:55 METAR KJYO 180455Z AUTO 00000KT 10SM CLR 21/21 A2998 RMK AO2 LTG DSNT W =
2018-08-18 00:35 METAR KJYO 180435Z AUTO 21003KT 10SM CLR 21/21 A2998 RMK AO2 LTG DSNT W =
2018-08-18 00:15 METAR KJYO 180415Z AUTO 00000KT 10SM CLR 22/21 A2998 RMK AO2 LTG DSNT NE AND W =
2018-08-17 23:55 METAR KJYO 180355Z AUTO 00000KT 10SM CLR 21/21 A2998 RMK AO2 LTG DSNT W =
2018-08-17 23:35 METAR KJYO 180335Z AUTO 00000KT 10SM CLR 21/21 A2998 RMK AO2 =
2018-08-17 23:15 METAR KJYO 180315Z AUTO 00000KT 10SM CLR 22/21 A2998 RMK AO2 =
2018-08-17 22:55 METAR KJYO 180255Z AUTO 00000KT 10SM CLR 22/21 A2998 RMK AO2 LTG DSNT NE =
2018-08-17 22:35 METAR KJYO 180235Z AUTO 22003KT 10SM CLR 22/21 A2998 RMK AO2 LTG DSNT W =
2018-08-17 22:15 METAR KJYO 180215Z AUTO 26004KT 10SM CLR 22/21 A2998 RMK AO2 =
2018-08-17 21:55 METAR KJYO 180155Z AUTO 20003KT 10SM CLR 22/22 A2998 RMK AO2 =
2018-08-17 21:35 METAR KJYO 180135Z AUTO 00000KT 10SM CLR 22/22 A2999 RMK AO2 =
2018-08-17 21:15 METAR KJYO 180115Z AUTO 26003KT 10SM SCT110 22/22 A2998 RMK AO2 =
2018-08-17 20:55 METAR KJYO 180055Z AUTO 00000KT 10SM SCT110 22/22 A2998 RMK AO2 LTG DSNT SW =
2018-08-17 20:35 METAR KJYO 180035Z AUTO 27003KT 10SM CLR 22/22 A2997 RMK AO2 =
2018-08-17 20:15 METAR KJYO 180015Z AUTO 25004KT 10SM CLR 22/22 A2997 RMK AO2 LTG DSNT SW =
2018-08-17 19:55 METAR KJYO 172355Z AUTO 26005KT 10SM SCT120 23/22 A2998 RMK AO2 =
2018-08-17 19:35 METAR KJYO 172335Z AUTO 29007KT 10SM BKN120 23/22 A2998 RMK AO2 =
2018-08-17 19:15 METAR KJYO 172315Z AUTO 26004KT 10SM SCT090 SCT120 23/22 A2999 RMK AO2 LTG DSNT
                 S AND SW =
2018-08-17 18:55 METAR KJYO 172255Z AUTO 23004KT 10SM -RA SCT055 SCT095 BKN110 23/22 A2999 RMK
                 AO2 LTG DSNT SW =
2018-08-17 18:35 METAR KJYO 172235Z AUTO 24006KT 7SM VCTSRA SCT110 23/23 A3000 RMK AO2 LTG DSNT
                 NE THRU SW =
2018-08-17 18:15 METAR KJYO 172215Z AUTO 24009KT 7SM /VCTSRA SCT080 BKN110 25/23 A3000 RMK AO2
                 LTG DSNT S THRU NW =
2018-08-17 17:55 METAR KJYO 172155Z AUTO 25011G17KT 10SM -TSRA SCT050 SCT090 SCT120 26/22 A3001
                 RMK AO2 LTG DSNT N NE AND SW =
2018-08-17 17:35 METAR KJYO 172135Z AUTO 29007KT 10SM CLR 28/23 A3001 RMK AO2 LTG DSNT SW THRU N
                 =
2018-08-17 17:15 METAR KJYO 172115Z AUTO 00000KT 10SM VCTS SCT050 SCT070 SCT085 28/24 A3000 RMK
                 AO2 LTG DSNT SW THRU N =
2018-08-17 16:55 METAR KJYO 172055Z AUTO 28005KT 10SM -RA SCT050 BKN070 BKN085 29/25 A2999 RMK
                 AO2 LTG DSNT ALQS =
2018-08-17 16:35 METAR KJYO 172035Z AUTO 23005KT 10SM CLR 31/25 A3000 RMK AO2 LTG DSNT W THRU NE
                 =
2018-08-17 16:15 METAR KJYO 172015Z AUTO 23004KT 10SM CLR 31/25 A3000 RMK AO2 LTG DSNT N AND W =
2018-08-17 15:55 METAR KJYO 171955Z AUTO 24004KT 10SM CLR 32/24 A2999 RMK AO2 LTG DSNT W THRU N =
2018-08-17 15:35 METAR KJYO 171935Z AUTO 19008KT 10SM SCT120 32/23 A3000 RMK AO2 LTG DSNT W AND
                 NW =
2018-08-17 15:15 METAR KJYO 171915Z AUTO 18011KT 10SM SCT120 34/23 A3000 RMK AO2 LTG DSNT W =
2018-08-17 14:55 METAR KJYO 171855Z AUTO 18009G14KT 10SM CLR 35/23 A3001 RMK AO2 LTG DSNT W =
2018-08-17 14:35 METAR KJYO 171835Z AUTO 18009G14KT 10SM CLR 34/23 A3001 RMK AO2 =
2018-08-17 14:15 METAR KJYO 171815Z AUTO 19008KT 10SM CLR 34/23 A3002 RMK AO2 =
2018-08-17 13:55 METAR KJYO 171755Z AUTO 17008KT 10SM CLR 34/24 A3002 RMK AO2 =

Support USWX by starting your Amazon purchase here.